Time;durP1;ratioP1;P1;durP2;ratioP2;P2;SDS_P1;SDS_P2;PMS_P1;PMS_P2;Temp;Humidity;BMP_temperature;BMP_pressure;BME280_temperature;BME280_humidity;BME280_pressure;Samples;Min_cycle;Max_cycle;Signal;HPM_P1;HPM_P2
2022/03/07 00:00:48;;;;;;;10.10;8.10;;;;;;;-0.60;69.60;102697.50;5054557;28;20061;-59
2022/03/07 00:03:13;;;;;;;10.32;8.02;;;;;;;-0.60;69.06;102700.13;5054253;28;20115;-59
2022/03/07 00:05:39;;;;;;;13.05;7.93;;;;;;;-0.61;69.39;102705.34;5054282;28;20041;-59
2022/03/07 00:08:04;;;;;;;12.95;7.95;;;;;;;-0.64;69.69;102693.13;5054206;28;20532;-59
2022/03/07 00:10:29;;;;;;;11.88;7.45;;;;;;;-0.66;69.29;102699.25;5054354;28;20033;-59
2022/03/07 00:12:55;;;;;;;11.23;8.18;;;;;;;-0.67;69.11;102695.75;5054099;28;20052;-59
2022/03/07 00:15:20;;;;;;;10.88;7.78;;;;;;;-0.70;69.63;102697.50;5054257;28;20032;-59
2022/03/07 00:17:46;;;;;;;14.73;8.43;;;;;;;-0.71;70.12;102691.41;5054387;28;20053;-60
2022/03/07 00:20:12;;;;;;;8.80;7.50;;;;;;;-0.71;69.45;102690.56;5052699;28;20112;-61
2022/03/07 00:22:37;;;;;;;11.80;8.30;;;;;;;-0.75;70.30;102687.03;5054561;28;20374;-59
2022/03/07 00:25:03;;;;;;;11.15;8.25;;;;;;;-0.77;69.87;102688.78;5053781;28;20104;-59
2022/03/07 00:27:28;;;;;;;13.82;9.23;;;;;;;-0.78;70.01;102693.16;5054052;28;20048;-59
2022/03/07 00:29:53;;;;;;;10.70;8.07;;;;;;;-0.78;70.18;102697.50;5053772;28;20029;-59
2022/03/07 00:32:18;;;;;;;11.18;8.25;;;;;;;-0.80;70.03;102697.50;5052668;28;20032;-59
2022/03/07 00:34:44;;;;;;;9.88;8.25;;;;;;;-0.82;69.91;102700.97;5053917;28;20036;-59
2022/03/07 00:37:09;;;;;;;11.80;8.18;;;;;;;-0.87;69.77;102702.69;5053861;28;20049;-59
2022/03/07 00:39:34;;;;;;;11.40;8.68;;;;;;;-0.89;70.10;102699.22;5053732;28;20375;-59
2022/03/07 00:42:00;;;;;;;10.23;8.38;;;;;;;-0.94;70.07;102701.81;5054017;28;20061;-62
2022/03/07 00:44:25;;;;;;;11.85;8.52;;;;;;;-0.96;69.40;102706.19;5053591;28;20033;-58
2022/03/07 00:46:50;;;;;;;12.27;8.55;;;;;;;-0.99;69.77;102704.41;5053902;28;20029;-58
2022/03/07 00:49:16;;;;;;;14.48;9.13;;;;;;;-1.02;70.41;102700.94;5053637;28;20037;-59
2022/03/07 00:51:41;;;;;;;13.27;8.65;;;;;;;-1.06;70.28;102702.69;5052412;28;20024;-59
2022/03/07 00:54:06;;;;;;;15.32;9.30;;;;;;;-1.09;70.88;102694.84;5053505;28;20079;-59
2022/03/07 00:56:32;;;;;;;13.60;8.35;;;;;;;-1.11;70.69;102701.81;5053530;28;20112;-59
2022/03/07 00:58:58;;;;;;;10.75;8.50;;;;;;;-1.16;70.26;102700.94;5053712;28;20029;-59
2022/03/07 01:01:24;;;;;;;12.05;8.57;;;;;;;-1.18;70.88;102713.09;5053498;28;20466;-59
2022/03/07 01:03:50;;;;;;;12.88;8.23;;;;;;;-1.20;70.45;102706.97;5053549;28;20033;-59
2022/03/07 01:06:15;;;;;;;13.70;8.40;;;;;;;-1.22;70.60;102706.13;5053336;28;20077;-59
2022/03/07 01:08:41;;;;;;;11.65;8.68;;;;;;;-1.24;70.55;102715.69;5052857;28;20041;-59
2022/03/07 01:11:06;;;;;;;15.20;8.73;;;;;;;-1.25;71.06;102711.31;5053424;28;20037;-60
2022/03/07 01:13:31;;;;;;;12.80;9.07;;;;;;;-1.29;71.34;102709.59;5053354;28;20140;-60
2022/03/07 01:15:57;;;;;;;11.55;8.95;;;;;;;-1.31;71.67;102715.66;5053445;28;20112;-60
2022/03/07 01:18:22;;;;;;;15.15;8.65;;;;;;;-1.32;71.31;102718.25;5054722;28;20459;-60
2022/03/07 01:20:47;;;;;;;11.38;8.70;;;;;;;-1.34;71.54;102707.81;5073242;28;20039;-58
2022/03/07 01:23:13;;;;;;;11.10;8.40;;;;;;;-1.36;71.41;102713.91;5073356;28;20033;-58
2022/03/07 01:25:38;;;;;;;11.35;8.65;;;;;;;-1.40;71.32;102707.81;5073121;28;20490;-58
2022/03/07 01:28:04;;;;;;;13.25;9.02;;;;;;;-1.41;71.50;102711.28;5062284;28;20040;-58
2022/03/07 01:30:29;;;;;;;12.15;8.77;;;;;;;-1.45;71.39;102704.28;5053245;28;20032;-58
2022/03/07 01:32:54;;;;;;;10.57;8.93;;;;;;;-1.47;71.68;102703.44;5053185;28;20036;-59
2022/03/07 01:35:20;;;;;;;15.13;8.95;;;;;;;-1.51;71.79;102705.16;5053259;28;20412;-58
2022/03/07 01:37:46;;;;;;;12.95;8.25;;;;;;;-1.52;71.73;102705.16;5053510;28;20029;-58
2022/03/07 01:40:12;;;;;;;10.95;8.73;;;;;;;-1.55;71.70;102702.53;5053205;28;20463;-59
2022/03/07 01:42:37;;;;;;;9.73;8.32;;;;;;;-1.56;71.96;102701.66;5053229;28;20048;-59
2022/03/07 01:45:13;;;;;;;11.02;8.27;;;;;;;-1.57;71.96;102699.06;5053041;28;20037;-59
2022/03/07 01:47:39;;;;;;;12.13;8.00;;;;;;;-1.61;71.64;102702.53;5053482;28;20028;-59
2022/03/07 01:50:10;;;;;;;13.05;8.73;;;;;;;-1.64;71.91;102699.91;5052961;28;20047;-59
2022/03/07 01:52:38;;;;;;;14.85;9.05;;;;;;;-1.66;71.38;102701.63;5052729;28;20065;-59
2022/03/07 01:55:05;;;;;;;10.80;8.73;;;;;;;-1.69;71.65;102699.88;5052749;28;20049;-59
2022/03/07 01:57:30;;;;;;;13.13;8.45;;;;;;;-1.70;71.47;102708.53;5052890;28;20037;-59
2022/03/07 01:59:57;;;;;;;10.10;8.13;;;;;;;-1.74;71.21;102699.00;5053131;28;20021;-59
2022/03/07 02:02:24;;;;;;;10.95;8.02;;;;;;;-1.77;71.50;102702.44;5053164;28;20053;-59
2022/03/07 02:04:50;;;;;;;11.55;8.93;;;;;;;-1.79;71.95;102700.69;5053093;28;20037;-59
2022/03/07 02:07:15;;;;;;;12.68;9.05;;;;;;;-1.80;72.03;102701.56;5052783;28;20051;-59
2022/03/07 02:09:41;;;;;;;11.27;8.90;;;;;;;-1.83;72.11;102696.31;5052618;28;20344;-59
2022/03/07 02:12:07;;;;;;;11.25;8.82;;;;;;;-1.87;72.28;102693.69;5052579;28;20025;-59
2022/03/07 02:14:34;;;;;;;10.63;8.57;;;;;;;-1.90;72.83;102693.72;5052892;28;20076;-59
2022/03/07 02:16:59;;;;;;;10.95;9.23;;;;;;;-1.91;72.62;102696.31;5052904;28;20052;-59
2022/03/07 02:19:25;;;;;;;11.43;8.98;;;;;;;-1.94;72.70;102689.34;5052622;28;20057;-59
2022/03/07 02:22:01;;;;;;;12.77;9.48;;;;;;;-1.95;73.23;102697.13;5058252;28;20033;-59
2022/03/07 02:24:28;;;;;;;10.48;8.43;;;;;;;-1.99;72.68;102691.03;5076270;28;20072;-59
2022/03/07 02:26:59;;;;;;;12.23;8.57;;;;;;;-2.03;73.45;102685.81;5076444;28;20050;-59
2022/03/07 02:29:24;;;;;;;11.52;9.13;;;;;;;-2.08;73.25;102684.06;5074071;28;20036;-59
2022/03/07 02:31:50;;;;;;;13.98;9.25;;;;;;;-2.12;73.16;102682.28;5076002;28;20019;-59
2022/03/07 02:34:16;;;;;;;13.10;8.80;;;;;;;-2.15;73.06;102687.50;5075937;28;20059;-59
2022/03/07 02:36:41;;;;;;;14.00;9.90;;;;;;;-2.19;73.29;102683.13;5075859;28;20038;-59
2022/03/07 02:39:07;;;;;;;9.95;8.93;;;;;;;-2.20;73.83;102680.50;5062757;28;20364;-59
2022/03/07 02:41:32;;;;;;;15.38;10.30;;;;;;;-2.22;73.92;102677.88;5056103;28;20039;-59
2022/03/07 02:43:57;;;;;;;12.77;9.05;;;;;;;-2.24;74.00;102684.81;5055785;28;20372;-59
2022/03/07 02:46:22;;;;;;;15.75;9.95;;;;;;;-2.26;73.92;102684.81;5055839;28;20033;-59
2022/03/07 02:48:48;;;;;;;11.73;9.77;;;;;;;-2.25;74.02;102683.06;5056053;28;20443;-59
2022/03/07 02:51:13;;;;;;;12.05;9.75;;;;;;;-2.27;74.35;102685.66;5055636;28;20063;-59
2022/03/07 02:53:38;;;;;;;15.82;9.70;;;;;;;-2.28;73.96;102675.25;5055893;28;20025;-59
2022/03/07 02:56:04;;;;;;;13.77;8.95;;;;;;;-2.29;74.62;102681.31;5055530;28;20048;-59
2022/03/07 02:58:29;;;;;;;13.00;10.23;;;;;;;-2.31;74.39;102680.44;5055698;28;20548;-59
2022/03/07 03:00:54;;;;;;;12.73;9.85;;;;;;;-2.33;74.70;102680.44;5055474;28;20037;-59
2022/03/07 03:03:20;;;;;;;12.55;9.95;;;;;;;-2.36;74.80;102684.75;5055508;28;20455;-59
2022/03/07 03:05:45;;;;;;;13.43;9.32;;;;;;;-2.40;74.68;102678.63;5055470;28;20079;-59
2022/03/07 03:08:10;;;;;;;13.30;9.68;;;;;;;-2.43;74.59;102674.28;5055339;28;20037;-59
2022/03/07 03:10:36;;;;;;;11.93;9.77;;;;;;;-2.46;74.75;102666.47;5055390;28;20064;-60
2022/03/07 03:13:02;;;;;;;15.10;10.05;;;;;;;-2.49;74.83;102671.63;5055342;28;20049;-59
2022/03/07 03:15:28;;;;;;;12.60;9.70;;;;;;;-2.50;75.81;102675.13;5055260;28;20044;-58
2022/03/07 03:17:53;;;;;;;13.23;10.20;;;;;;;-2.52;75.50;102673.34;5054953;28;20033;-58
2022/03/07 03:20:18;;;;;;;12.73;10.02;;;;;;;-2.53;75.95;102677.69;5055216;28;20056;-59
2022/03/07 03:22:44;;;;;;;13.02;9.93;;;;;;;-2.55;76.11;102674.19;5055064;28;20387;-59
2022/03/07 03:25:12;;;;;;;15.20;10.25;;;;;;;-2.56;76.21;102677.66;5097351;22;20051;-81
2022/03/07 03:27:38;;;;;;;12.48;10.50;;;;;;;-2.58;76.38;102675.91;5055027;28;20114;-80
2022/03/07 03:30:06;;;;;;;14.48;10.20;;;;;;;-2.59;75.58;102684.59;5049115;28;20022;-80
2022/03/07 03:32:31;;;;;;;14.25;11.05;;;;;;;-2.59;77.02;102679.38;5050071;28;20026;-80
2022/03/07 03:34:57;;;;;;;13.73;10.68;;;;;;;-2.58;75.87;102679.41;5038256;28;20186;-81
2022/03/07 03:37:24;;;;;;;17.27;11.18;;;;;;;-2.59;76.02;102682.84;5034794;28;20112;-80
2022/03/07 03:39:50;;;;;;;13.25;10.48;;;;;;;-2.58;75.93;102682.00;5035062;28;20369;-80
2022/03/07 03:42:15;;;;;;;15.35;10.85;;;;;;;-2.59;76.43;102681.97;5035075;28;20075;-81
2022/03/07 03:44:40;;;;;;;13.48;11.30;;;;;;;-2.62;76.35;102673.28;5054630;28;20041;-80
2022/03/07 03:47:06;;;;;;;16.05;11.35;;;;;;;-2.59;76.77;102679.38;5070296;28;20028;-80
2022/03/07 03:49:31;;;;;;;16.65;11.40;;;;;;;-2.59;77.27;102689.78;5054865;28;20025;-80
2022/03/07 03:51:57;;;;;;;17.38;10.93;;;;;;;-2.59;77.24;102693.25;5054515;28;20036;-80
2022/03/07 03:54:23;;;;;;;16.52;11.45;;;;;;;-2.59;76.82;102685.44;5054352;28;20430;-81
2022/03/07 03:56:49;;;;;;;14.77;11.55;;;;;;;-2.59;76.97;102684.59;5054259;28;20029;-80
2022/03/07 03:59:14;;;;;;;14.90;11.23;;;;;;;-2.63;76.31;102684.56;5054131;28;20048;-81
2022/03/07 04:01:40;;;;;;;16.38;12.02;;;;;;;-2.61;76.87;102689.78;5051107;28;20467;-80
2022/03/07 04:04:05;;;;;;;17.88;12.02;;;;;;;-2.62;77.60;102683.69;5054286;28;20095;-80
2022/03/07 04:06:30;;;;;;;15.57;11.75;;;;;;;-2.59;77.79;102692.38;5054066;28;20033;-81
2022/03/07 04:09:00;;;;;;;14.70;11.30;;;;;;;-2.59;77.46;102697.59;5054118;28;20075;-80
2022/03/07 04:11:25;;;;;;;18.55;12.18;;;;;;;-2.62;77.47;102693.22;5069522;28;20067;-80
2022/03/07 04:13:51;;;;;;;15.10;11.55;;;;;;;-2.62;76.49;102691.47;5049228;28;20484;-80
2022/03/07 04:16:16;;;;;;;14.75;11.65;;;;;;;-2.63;76.89;102694.09;5034220;28;20069;-80
2022/03/07 04:18:41;;;;;;;18.02;11.68;;;;;;;-2.65;77.36;102685.38;5044636;28;20025;-80
2022/03/07 04:21:06;;;;;;;16.95;12.32;;;;;;;-2.68;77.70;102686.25;5054869;28;20376;-81
2022/03/07 04:23:32;;;;;;;17.42;12.00;;;;;;;-2.65;77.83;102693.19;5054070;28;20460;-80
2022/03/07 04:25:57;;;;;;;16.02;11.32;;;;;;;-2.63;77.54;102694.97;5053979;28;20053;-79
2022/03/07 04:28:22;;;;;;;17.77;12.50;;;;;;;-2.62;78.25;102691.47;5040622;28;20044;-80
2022/03/07 04:30:48;;;;;;;18.40;11.77;;;;;;;-2.65;78.00;102683.69;5033911;28;20045;-80
2022/03/07 04:33:13;;;;;;;15.00;11.48;;;;;;;-2.65;77.96;102686.28;5033841;28;20538;-80
2022/03/07 04:35:38;;;;;;;17.60;12.38;;;;;;;-2.61;78.30;102687.16;5032373;28;20029;-80
2022/03/07 04:38:04;;;;;;;16.85;12.27;;;;;;;-2.65;77.55;102682.78;5033773;28;20594;-80
2022/03/07 04:40:29;;;;;;;17.13;11.52;;;;;;;-2.64;77.93;102687.13;5034104;28;20438;-80
2022/03/07 04:42:56;;;;;;;16.63;11.60;;;;;;;-2.63;78.31;102678.50;5053087;28;20575;-80
2022/03/07 04:45:22;;;;;;;14.52;11.52;;;;;;;-2.67;78.34;102682.78;5053636;28;20110;-80
2022/03/07 04:47:48;;;;;;;15.60;11.30;;;;;;;-2.67;78.00;102684.50;5053457;28;20036;-80
2022/03/07 04:50:13;;;;;;;15.60;12.25;;;;;;;-2.68;77.98;102685.34;5043645;28;20021;-80
2022/03/07 04:52:41;;;;;;;14.40;11.85;;;;;;;-2.67;78.17;102689.72;5033411;28;20548;-80
2022/03/07 04:55:08;;;;;;;16.85;12.43;;;;;;;-2.65;78.61;102688.00;5033502;28;20095;-80
2022/03/07 04:57:33;;;;;;;17.90;12.63;;;;;;;-2.65;78.88;102688.88;5033408;28;20029;-80
2022/03/07 04:59:58;;;;;;;17.30;12.07;;;;;;;-2.65;78.27;102690.59;5051641;28;20025;-80
2022/03/07 05:02:24;;;;;;;16.63;12.07;;;;;;;-2.66;78.59;102692.34;5053287;28;20055;-80
2022/03/07 05:04:49;;;;;;;14.40;11.68;;;;;;;-2.65;78.18;102695.78;5041056;28;20031;-80
2022/03/07 05:07:14;;;;;;;15.98;12.05;;;;;;;-2.67;78.47;102695.78;5033135;28;20396;-81
2022/03/07 05:09:40;;;;;;;17.08;12.45;;;;;;;-2.67;78.35;102685.38;5033216;28;20021;-80
2022/03/07 05:12:06;;;;;;;16.45;11.95;;;;;;;-2.68;77.78;102685.34;5036910;28;20028;-80
2022/03/07 05:14:31;;;;;;;16.77;12.60;;;;;;;-2.69;77.65;102697.50;5053014;28;20113;-80
2022/03/07 05:16:56;;;;;;;16.55;12.35;;;;;;;-2.74;78.13;102674.94;5053128;28;20056;-80
2022/03/07 05:19:23;;;;;;;13.18;10.70;;;;;;;-2.71;77.29;102677.56;5053207;28;20033;-80
2022/03/07 05:21:48;;;;;;;13.07;11.13;;;;;;;-2.72;77.32;102686.22;5040131;28;20389;-80
2022/03/07 05:24:14;;;;;;;15.52;10.75;;;;;;;-2.73;76.89;102687.06;5033209;28;20041;-80
2022/03/07 05:26:39;;;;;;;15.90;11.73;;;;;;;-2.77;76.84;102683.56;5033367;28;20136;-80
2022/03/07 05:29:06;;;;;;;17.45;10.85;;;;;;;-2.77;77.14;102693.97;5033140;28;20030;-80
2022/03/07 05:31:31;;;;;;;15.18;12.88;;;;;;;-2.87;77.77;102671.34;5033722;28;20090;-80
2022/03/07 05:33:57;;;;;;;15.93;12.30;;;;;;;-2.83;76.73;102684.38;5032964;28;20030;-80
2022/03/07 05:36:22;;;;;;;14.73;11.82;;;;;;;-2.87;77.15;102681.75;5049271;28;20388;-80
2022/03/07 05:38:47;;;;;;;15.57;11.82;;;;;;;-2.86;77.76;102688.69;5053373;28;20495;-80
2022/03/07 05:41:14;;;;;;;15.52;12.30;;;;;;;-2.91;77.44;102683.44;5042562;28;20457;-80
2022/03/07 05:43:39;;;;;;;16.98;12.63;;;;;;;-2.88;77.69;102693.00;5033679;28;20082;-80
2022/03/07 05:46:06;;;;;;;17.17;12.40;;;;;;;-2.91;77.12;102693.00;5033679;28;20121;-80
2022/03/07 05:48:31;;;;;;;16.77;12.60;;;;;;;-2.91;77.56;102696.44;5033478;28;20095;-80
2022/03/07 05:50:56;;;;;;;16.27;12.23;;;;;;;-2.96;77.17;102698.13;5032838;28;20434;-80
2022/03/07 05:53:23;;;;;;;15.90;11.57;;;;;;;-2.95;77.39;102699.84;5031329;28;20060;-80
2022/03/07 05:55:49;;;;;;;13.90;11.48;;;;;;;-2.97;77.07;102701.56;5035297;28;20112;-80
2022/03/07 05:58:15;;;;;;;15.73;11.68;;;;;;;-3.00;77.74;102692.03;5055194;28;20033;-80
2022/03/07 06:00:40;;;;;;;14.40;11.90;;;;;;;-3.01;76.68;102695.47;5056562;28;20029;-80
2022/03/07 06:03:06;;;;;;;17.63;12.63;;;;;;;-3.01;77.36;102692.03;5055902;28;20025;-81
2022/03/07 06:05:31;;;;;;;17.52;12.20;;;;;;;-3.07;77.32;102695.41;5055912;28;20029;-80
2022/03/07 06:07:57;;;;;;;18.35;13.32;;;;;;;-3.05;78.15;102711.03;5056532;28;20039;-80
2022/03/07 06:10:22;;;;;;;24.13;14.13;;;;;;;-3.09;77.87;102707.53;5057966;28;20535;-80
2022/03/07 06:12:47;;;;;;;18.40;12.77;;;;;;;-3.09;77.77;102710.13;5057704;28;20131;-80
2022/03/07 06:15:13;;;;;;;19.35;13.68;;;;;;;-3.09;78.69;102719.66;5057431;28;20021;-80
2022/03/07 06:17:55;;;;;;;24.00;14.60;;;;;;;-3.10;78.83;102721.38;5057164;28;20029;-80
2022/03/07 06:20:22;;;;;;;22.13;14.20;;;;;;;-3.10;79.03;102723.09;5056489;28;20029;-81
2022/03/07 06:22:48;;;;;;;23.73;14.02;;;;;;;-3.13;79.17;102721.38;5056681;28;20518;-80
2022/03/07 06:25:14;;;;;;;23.60;14.73;;;;;;;-3.13;79.54;102721.38;5056729;28;20507;-81
2022/03/07 06:27:39;;;;;;;22.13;14.93;;;;;;;-3.09;79.54;102724.88;5058523;28;20029;-81
2022/03/07 06:30:05;;;;;;;21.48;14.63;;;;;;;-3.09;79.39;102730.94;5058462;28;20025;-79
2022/03/07 06:32:30;;;;;;;23.42;15.18;;;;;;;-3.09;79.65;102735.25;5056810;28;20037;-79
2022/03/07 06:34:55;;;;;;;21.50;14.60;;;;;;;-3.07;79.39;102742.19;5056395;28;20037;-79
2022/03/07 06:37:21;;;;;;;22.45;14.65;;;;;;;-3.06;79.56;102737.91;5056297;28;20031;-79
2022/03/07 06:39:46;;;;;;;19.92;14.27;;;;;;;-3.05;79.48;102739.63;5051366;28;20026;-78
2022/03/07 06:42:12;;;;;;;20.67;14.98;;;;;;;-3.02;80.06;102734.47;5036254;28;20083;-78
2022/03/07 06:44:40;;;;;;;22.95;14.82;;;;;;;-2.98;80.43;102741.44;5055627;28;20037;-77
2022/03/07 06:47:10;;;;;;;23.15;14.93;;;;;;;-2.95;80.34;102738.00;5056346;28;20025;-78
2022/03/07 06:49:35;;;;;;;21.15;15.15;;;;;;;-2.96;80.10;102739.72;5056730;28;20083;-78
2022/03/07 06:52:01;;;;;;;18.98;14.63;;;;;;;-2.95;79.84;102733.66;5056313;28;20491;-78
2022/03/07 06:54:27;;;;;;;20.67;15.13;;;;;;;-2.90;79.69;102744.09;5056037;28;20025;-80
2022/03/07 06:56:52;;;;;;;19.90;15.32;;;;;;;-2.91;79.53;102748.44;5056000;28;20096;-79
2022/03/07 06:59:17;;;;;;;23.58;15.18;;;;;;;-2.87;79.99;102752.81;5056488;28;20529;-80
2022/03/07 07:01:43;;;;;;;22.55;15.23;;;;;;;-2.86;79.62;102746.75;5056201;28;20041;-80
2022/03/07 07:04:08;;;;;;;24.23;15.18;;;;;;;-2.81;80.19;102750.28;5055500;28;20078;-80
2022/03/07 07:06:33;;;;;;;20.25;15.50;;;;;;;-2.79;79.48;102748.56;5055821;28;20070;-81
2022/03/07 07:08:59;;;;;;;19.48;15.13;;;;;;;-2.75;79.89;102749.44;5055508;28;20021;-81
2022/03/07 07:11:24;;;;;;;21.67;15.55;;;;;;;-2.73;79.95;102745.16;5054602;28;20040;-80
2022/03/07 07:13:50;;;;;;;21.08;15.30;;;;;;;-2.68;80.07;102746.06;5054461;28;20383;-81
2022/03/07 07:16:15;;;;;;;19.02;15.15;;;;;;;-2.64;80.11;102749.56;5054229;28;20029;-80
2022/03/07 07:18:41;;;;;;;21.40;15.60;;;;;;;-2.60;79.93;102746.13;5054382;28;20615;-80
2022/03/07 07:21:06;;;;;;;25.17;16.67;;;;;;;-2.55;79.90;102748.78;5054366;28;20029;-80
2022/03/07 07:23:31;;;;;;;25.15;15.30;;;;;;;-2.53;79.86;102736.63;5054103;28;20031;-80
2022/03/07 07:25:57;;;;;;;24.27;15.52;;;;;;;-2.48;79.93;102740.16;5053018;28;20056;-80
2022/03/07 07:28:22;;;;;;;23.10;16.02;;;;;;;-2.43;79.70;102733.28;5054857;28;20056;-80
2022/03/07 07:30:47;;;;;;;20.38;14.60;;;;;;;-2.36;79.20;102744.59;5056115;28;20393;-81
2022/03/07 07:33:14;;;;;;;21.25;14.43;;;;;;;-2.31;79.32;102730.75;5055160;28;20032;-80
2022/03/07 07:35:39;;;;;;;19.17;14.65;;;;;;;-2.24;78.83;102737.75;5055084;28;20547;-81
2022/03/07 07:38:05;;;;;;;19.63;15.02;;;;;;;-2.24;78.27;102732.53;5054709;28;20112;-81
2022/03/07 07:40:31;;;;;;;20.23;14.50;;;;;;;-2.10;78.27;102740.47;5053824;28;20072;-81
2022/03/07 07:42:57;;;;;;;18.35;14.10;;;;;;;-2.02;78.41;102744.84;5050740;28;20116;-80
2022/03/07 07:45:24;;;;;;;18.75;14.20;;;;;;;-1.96;78.08;102753.56;5046253;28;20109;-81
2022/03/07 07:47:49;;;;;;;17.10;13.82;;;;;;;-1.89;77.85;102749.25;5053907;28;20040;-81
2022/03/07 07:50:17;;;;;;;19.58;14.48;;;;;;;-1.80;77.65;102753.66;5054186;28;20033;-81
2022/03/07 07:52:42;;;;;;;17.33;13.45;;;;;;;-1.72;76.72;102750.22;5054115;28;20488;-81
2022/03/07 07:55:08;;;;;;;17.80;13.75;;;;;;;-1.66;77.26;102748.53;5053990;28;20052;-81
2022/03/07 07:57:34;;;;;;;19.98;14.55;;;;;;;-1.54;76.96;102748.56;5052878;28;20044;-81
2022/03/07 07:59:59;;;;;;;16.10;13.77;;;;;;;-1.44;76.97;102754.72;5053828;28;20067;-81
2022/03/07 08:02:25;;;;;;;17.00;13.25;;;;;;;-1.34;75.91;102753.88;5053825;28;20041;-81
2022/03/07 08:04:52;;;;;;;21.77;13.13;;;;;;;-1.22;75.41;102753.91;5045938;28;20029;-81
2022/03/07 08:07:19;;;;;;;17.52;13.40;;;;;;;-1.08;74.96;102750.47;5053881;28;20087;-80
2022/03/07 08:09:45;;;;;;;17.83;12.57;;;;;;;-0.94;74.69;102748.78;5053281;28;20049;-81
2022/03/07 08:12:10;;;;;;;15.35;12.38;;;;;;;-0.82;74.13;102753.13;5053972;28;20483;-80
2022/03/07 08:14:36;;;;;;;15.55;11.48;;;;;;;-0.68;73.09;102742.72;5053926;28;20430;-80
2022/03/07 08:17:03;;;;;;;15.45;12.95;;;;;;;-0.47;74.20;102757.53;5052081;28;20033;-80
2022/03/07 08:19:29;;;;;;;17.55;12.77;;;;;;;-0.29;72.21;102759.28;5052969;28;20029;-80
2022/03/07 08:21:54;;;;;;;14.18;11.57;;;;;;;-0.08;71.59;102753.16;5053590;28;20525;-81
2022/03/07 08:24:19;;;;;;;16.45;11.45;;;;;;;0.15;70.17;102748.75;5052176;28;20038;-80
2022/03/07 08:26:44;;;;;;;12.88;11.07;;;;;;;0.36;69.43;102742.59;5053038;28;20446;-80
2022/03/07 08:29:10;;;;;;;15.38;10.68;;;;;;;0.69;68.65;102747.72;5052523;28;20032;-81
2022/03/07 08:31:35;;;;;;;13.52;10.55;;;;;;;0.92;66.87;102747.59;5053692;28;20075;-81
2022/03/07 08:34:00;;;;;;;12.25;10.48;;;;;;;1.18;66.37;102757.00;5053345;28;20040;-80
2022/03/07 08:36:26;;;;;;;10.98;9.70;;;;;;;1.35;64.13;102754.28;5053886;28;20025;-80
2022/03/07 08:38:52;;;;;;;14.32;9.55;;;;;;;1.55;64.13;102756.75;5053579;28;20029;-80
2022/03/07 08:41:17;;;;;;;10.32;9.23;;;;;;;1.75;63.36;102748.72;5053971;28;20098;-80
2022/03/07 08:43:42;;;;;;;11.15;9.23;;;;;;;1.91;62.49;102752.94;5054002;28;20095;-81
2022/03/07 08:46:08;;;;;;;13.57;9.50;;;;;;;2.10;62.55;102747.50;5053994;28;20029;-78
2022/03/07 08:48:33;;;;;;;12.80;9.55;;;;;;;2.27;61.67;102745.59;5053677;28;20048;-79
2022/03/07 08:50:59;;;;;;;14.52;9.02;;;;;;;2.44;60.46;102753.25;5053385;28;20025;-79
2022/03/07 08:53:24;;;;;;;9.63;8.63;;;;;;;2.57;59.29;102740.88;5052954;28;20048;-79
2022/03/07 08:55:50;;;;;;;10.23;8.90;;;;;;;2.76;59.66;102747.63;5053337;28;20071;-78
2022/03/07 08:58:15;;;;;;;11.20;8.40;;;;;;;2.91;57.82;102741.25;5053051;28;20032;-78
2022/03/07 09:00:40;;;;;;;9.70;8.02;;;;;;;3.00;58.13;102732.41;5053369;28;20543;-79
2022/03/07 09:03:06;;;;;;;15.32;8.65;;;;;;;3.16;57.12;102727.78;5053198;28;20044;-78
2022/03/07 09:05:31;;;;;;;8.70;7.80;;;;;;;3.34;56.08;102722.25;5052872;28;20021;-79
2022/03/07 09:07:56;;;;;;;12.35;7.95;;;;;;;3.51;56.43;102724.63;5052979;28;20440;-78
2022/03/07 09:10:22;;;;;;;9.02;8.13;;;;;;;3.66;55.59;102731.38;5056273;28;20112;-78
2022/03/07 09:12:49;;;;;;;10.48;7.50;;;;;;;3.76;54.29;102721.53;5060655;28;20051;-79
2022/03/07 09:15:15;;;;;;;10.25;7.50;;;;;;;3.99;55.06;102720.25;5053045;28;20033;-79
2022/03/07 09:17:41;;;;;;;11.07;7.55;;;;;;;4.09;53.22;102719.19;5053082;28;20106;-79
2022/03/07 09:20:07;;;;;;;9.20;6.80;;;;;;;4.29;52.68;102728.47;5053543;28;20365;-79
2022/03/07 09:22:33;;;;;;;8.05;7.00;;;;;;;4.44;51.58;102730.78;5038463;28;20021;-79
2022/03/07 09:24:59;;;;;;;9.43;7.60;;;;;;;4.60;51.19;102726.06;5070415;28;20070;-79
2022/03/07 09:27:24;;;;;;;9.73;7.13;;;;;;;4.70;50.82;102722.34;5062986;28;20044;-79
2022/03/07 09:29:50;;;;;;;7.38;6.60;;;;;;;4.72;50.59;102714.41;5055535;28;20409;-79
2022/03/07 09:32:15;;;;;;;7.45;5.55;;;;;;;4.84;49.99;102718.53;5057487;28;20491;-79
2022/03/07 09:34:40;;;;;;;8.23;5.88;;;;;;;4.96;49.43;102715.63;5057466;28;20029;-79
2022/03/07 09:37:06;;;;;;;6.05;5.28;;;;;;;5.09;48.24;102717.06;5057887;28;20028;-79
2022/03/07 09:39:33;;;;;;;8.43;5.35;;;;;;;5.19;47.66;102709.81;5057586;28;20037;-79
2022/03/07 09:41:59;;;;;;;6.13;5.53;;;;;;;5.34;48.41;102711.22;5056990;28;20025;-79
2022/03/07 09:44:25;;;;;;;7.68;5.57;;;;;;;5.51;47.05;102705.50;5057304;28;20406;-79
2022/03/07 09:46:50;;;;;;;9.80;6.30;;;;;;;5.67;47.75;102706.84;5057383;28;20090;-79
2022/03/07 09:49:19;;;;;;;6.35;5.22;;;;;;;5.80;46.33;102696.84;5057047;28;20067;-80
2022/03/07 09:51:44;;;;;;;6.70;6.00;;;;;;;5.88;46.63;102704.56;5058318;28;20534;-79
2022/03/07 09:54:09;;;;;;;9.13;5.53;;;;;;;5.97;46.39;102700.84;5055809;28;20032;-82
2022/03/07 09:56:34;;;;;;;6.53;5.20;;;;;;;6.09;46.34;102697.84;5056794;28;20040;-82
2022/03/07 09:59:00;;;;;;;6.32;4.78;;;;;;;6.22;45.62;102696.59;5056435;28;20032;-82
2022/03/07 10:01:25;;;;;;;6.68;5.05;;;;;;;6.33;44.55;102701.59;5056350;28;20387;-82
2022/03/07 10:03:53;;;;;;;7.22;4.82;;;;;;;6.43;43.33;102689.84;5057954;28;20047;-81
2022/03/07 10:06:19;;;;;;;9.57;4.88;;;;;;;6.48;44.41;102690.56;5057657;28;20082;-82
2022/03/07 10:08:56;;;;;;;5.97;4.85;;;;;;;6.50;44.61;102668.56;5061396;28;20051;-81
2022/03/07 10:11:22;;;;;;;5.47;4.28;;;;;;;6.67;43.47;102680.31;5075554;28;20016;-84
2022/03/07 10:13:59;;;;;;;8.45;5.25;;;;;;;6.76;44.23;102673.00;5080085;28;20108;-83
2022/03/07 10:16:35;;;;;;;5.93;4.70;;;;;;;6.90;44.25;102670.81;5076473;28;20043;-82
2022/03/07 10:19:06;;;;;;;4.75;4.35;;;;;;;6.99;43.34;102674.94;5071746;28;20037;-82
2022/03/07 10:21:31;;;;;;;7.22;4.78;;;;;;;7.13;43.26;102667.44;5060071;28;20108;-81
2022/03/07 10:23:59;;;;;;;5.65;4.55;;;;;;;7.22;41.70;102668.91;5050279;28;20083;-80
2022/03/07 10:26:24;;;;;;;7.05;4.13;;;;;;;7.25;41.43;102674.09;5060332;28;20098;-80
2022/03/07 10:28:55;;;;;;;7.35;3.92;;;;;;;7.25;41.92;102662.66;5060931;28;20057;-80
2022/03/07 10:31:21;;;;;;;5.15;4.07;;;;;;;7.29;40.99;102672.19;5059918;28;20037;-80
2022/03/07 10:33:58;;;;;;;5.70;4.20;;;;;;;7.31;41.36;102663.31;5057580;28;20036;-80
2022/03/07 10:36:39;;;;;;;6.15;4.10;;;;;;;7.31;41.03;102665.06;5044794;28;20525;-80
2022/03/07 10:39:10;;;;;;;6.28;4.43;;;;;;;7.29;40.84;102664.28;5037770;28;20025;-79
2022/03/07 10:41:38;;;;;;;6.35;3.92;;;;;;;7.31;40.70;102657.16;5035686;28;20438;-79
2022/03/07 10:44:09;;;;;;;5.57;4.25;;;;;;;7.38;41.17;102666.63;5047831;28;20479;-80
2022/03/07 10:46:34;;;;;;;5.18;4.03;;;;;;;7.46;41.07;102643.44;5055544;28;20037;-80
2022/03/07 10:49:00;;;;;;;5.60;4.20;;;;;;;7.49;41.16;102650.38;5056143;28;20033;-80
2022/03/07 10:51:26;;;;;;;5.55;4.43;;;;;;;7.46;40.59;102635.50;5056014;28;20068;-79
2022/03/07 10:53:53;;;;;;;6.40;4.35;;;;;;;7.48;40.30;102638.94;5055929;28;20353;-80
2022/03/07 10:56:21;;;;;;;4.43;3.92;;;;;;;7.53;40.80;102629.06;5055556;28;20025;-81
2022/03/07 10:58:53;;;;;;;5.85;4.32;;;;;;;7.73;40.88;102620.44;5056612;28;20021;-81
2022/03/07 11:01:32;;;;;;;5.53;4.18;;;;;;;7.87;41.22;102611.97;5055544;28;20428;-80
2022/03/07 11:03:58;;;;;;;8.63;4.72;;;;;;;8.03;40.28;102617.56;5055940;28;20495;-80
2022/03/07 11:06:26;;;;;;;6.82;4.10;;;;;;;7.96;39.55;102608.16;5055475;28;20036;-80
2022/03/07 11:08:52;;;;;;;4.47;4.07;;;;;;;8.01;40.02;102616.78;5055740;28;20499;-80
2022/03/07 11:11:20;;;;;;;5.10;4.20;;;;;;;7.99;40.22;102597.44;5054405;28;20029;-79